createdAt,value
2019-05-15T00:02:33.089Z,74.11
2019-05-15T00:06:35.139Z,74.06
2019-05-15T00:10:38.925Z,74.64
2019-05-15T00:14:41.022Z,75.26
2019-05-15T00:18:44.604Z,75.19
2019-05-15T00:22:48.390Z,75.04
2019-05-15T00:26:50.383Z,75.78
2019-05-15T00:30:52.489Z,75.52
2019-05-15T00:34:54.621Z,75.62
2019-05-15T00:38:58.945Z,76.56
2019-05-15T00:43:03.275Z,76.51
2019-05-15T00:47:05.731Z,77.17
2019-05-15T00:51:08.483Z,77.12
2019-05-15T00:55:12.029Z,77.54
2019-05-15T00:59:24.106Z,77.46
2019-05-15T01:03:18.380Z,77.96
2019-05-15T01:07:20.549Z,77.67
2019-05-15T01:11:22.492Z,77.77
2019-05-15T01:15:24.792Z,78.51
2019-05-15T01:19:28.728Z,78.71
2019-05-15T01:23:30.876Z,78.41
2019-05-15T01:27:32.845Z,78.50
2019-05-15T01:31:34.965Z,79.04
2019-05-15T01:35:38.363Z,79.16
2019-05-15T01:39:40.677Z,79.06
2019-05-15T01:43:42.906Z,79.47
2019-05-15T01:47:45.140Z,79.25
2019-05-15T01:51:47.957Z,79.05
2019-05-15T01:55:50.087Z,79.12
2019-05-15T01:59:57.222Z,79.79
2019-05-15T02:03:56.086Z,80.00
2019-05-15T02:07:58.586Z,79.91
2019-05-15T02:12:00.729Z,80.19
2019-05-15T02:16:02.910Z,80.46
2019-05-15T02:20:08.147Z,80.69
2019-05-15T02:24:11.025Z,80.56
2019-05-15T02:28:13.144Z,81.38
2019-05-15T02:32:15.431Z,81.25
2019-05-15T02:36:20.543Z,81.26
2019-05-15T02:40:21.465Z,81.63
2019-05-15T02:44:24.027Z,81.79
2019-05-15T02:48:28.973Z,81.91
2019-05-15T02:52:30.191Z,81.83
2019-05-15T02:56:32.454Z,82.01
2019-05-15T03:00:45.258Z,81.91
2019-05-15T03:04:40.116Z,82.18
2019-05-15T03:08:42.409Z,81.96
2019-05-15T03:12:44.559Z,81.75
2019-05-15T03:16:49.525Z,81.83
2019-05-15T03:20:50.486Z,81.41
2019-05-15T03:24:52.669Z,81.54
2019-05-15T03:28:54.806Z,81.56
2019-05-15T03:33:07.751Z,81.38
2019-05-15T03:37:03.486Z,81.44
2019-05-15T03:41:04.957Z,81.07
2019-05-15T03:45:10.036Z,80.56
2019-05-15T03:49:11.512Z,80.17
2019-05-15T03:53:13.724Z,79.34
2019-05-15T03:57:20.055Z,78.55
2019-05-15T04:01:30.036Z,78.01
2019-05-15T04:05:23.679Z,77.39
2019-05-15T04:09:29.158Z,76.46
2019-05-15T04:13:30.363Z,76.39
2019-05-15T04:17:32.423Z,75.76
2019-05-15T04:21:34.997Z,74.48
2019-05-15T04:25:39.171Z,72.19
2019-05-15T04:29:41.539Z,70.38
2019-05-15T04:33:44.173Z,67.29
2019-05-15T04:37:49.161Z,63.13
2019-05-15T04:41:51.074Z,61.69
2019-05-15T04:45:53.511Z,59.24
2019-05-15T04:49:55.683Z,60.24
2019-05-15T04:53:58.611Z,58.26
2019-05-15T04:58:01.050Z,54.32
2019-05-15T05:02:16.234Z,54.65
2019-05-15T05:06:09.662Z,54.88
2019-05-15T05:10:13.523Z,54.00
2019-05-15T05:14:15.594Z,53.63
2019-05-15T05:18:19.040Z,51.82
2019-05-15T05:22:21.213Z,51.78
2019-05-15T05:26:23.253Z,51.41
2019-05-15T05:30:25.395Z,50.16
2019-05-15T05:34:28.365Z,50.53
2019-05-15T05:38:30.958Z,49.09
2019-05-15T05:42:33.097Z,48.04
2019-05-15T05:46:34.922Z,47.85
2019-05-15T05:50:39.056Z,47.57
2019-05-15T05:54:41.209Z,46.20
2019-05-15T05:58:43.159Z,46.37
2019-05-15T06:02:48.835Z,44.95
2019-05-15T06:07:06.201Z,44.40
2019-05-15T06:10:55.483Z,44.95
2019-05-15T06:14:58.041Z,45.20
2019-05-15T06:19:00.116Z,43.26
2019-05-15T06:23:02.356Z,41.92
2019-05-15T06:27:04.447Z,41.64
2019-05-15T06:31:08.663Z,41.83
2019-05-15T06:35:11.800Z,41.55
2019-05-15T06:39:13.618Z,41.08
2019-05-15T06:43:15.875Z,41.04
2019-05-15T06:47:18.131Z,41.61
2019-05-15T06:51:20.291Z,39.91
2019-05-15T06:55:22.457Z,39.55
2019-05-15T06:59:24.577Z,38.86
2019-05-15T07:03:29.387Z,36.21
2019-05-15T07:07:31.293Z,39.15
2019-05-15T07:11:33.579Z,37.37
2019-05-15T07:15:38.213Z,35.20
2019-05-15T07:19:39.496Z,35.42
2019-05-15T07:23:41.635Z,36.05
2019-05-15T07:27:43.781Z,35.39
2019-05-15T07:31:47.837Z,35.42
2019-05-15T07:35:50.322Z,36.69
2019-05-15T07:39:52.063Z,34.97
2019-05-15T07:43:54.085Z,35.37
2019-05-15T07:47:58.479Z,34.56
2019-05-15T07:52:00.312Z,33.88
2019-05-15T07:56:02.087Z,33.52
2019-05-15T08:00:05.434Z,34.55
2019-05-15T08:04:22.834Z,35.40
2019-05-15T08:08:10.717Z,32.66
2019-05-15T08:12:12.564Z,32.41
2019-05-15T08:16:14.742Z,35.51
2019-05-15T08:20:18.753Z,34.53
2019-05-15T08:24:20.579Z,32.97
2019-05-15T08:28:23.368Z,35.12
2019-05-15T08:32:25.261Z,33.72
2019-05-15T08:36:27.990Z,34.14
2019-05-15T08:40:30.693Z,33.68
2019-05-15T08:44:32.512Z,32.44
2019-05-15T08:48:34.495Z,34.63
2019-05-15T08:52:39.086Z,32.76
2019-05-15T08:56:40.017Z,33.94
2019-05-15T09:00:44.098Z,34.17
2019-05-15T09:04:45.320Z,33.33
2019-05-15T09:08:49.076Z,32.73
2019-05-15T09:12:53.932Z,32.83
2019-05-15T09:16:54.358Z,32.92
2019-05-15T09:20:59.084Z,33.11
2019-05-15T09:24:59.845Z,34.26
2019-05-15T09:29:01.753Z,34.14
2019-05-15T09:33:03.557Z,33.07
2019-05-15T09:37:05.501Z,32.03
2019-05-15T09:41:08.992Z,34.31
2019-05-15T09:45:11.104Z,34.42
2019-05-15T09:49:12.859Z,32.55
2019-05-15T09:53:15.163Z,33.79
2019-05-15T09:57:18.907Z,34.19
2019-05-15T10:01:21.171Z,35.02
2019-05-15T10:05:23.350Z,33.45
2019-05-15T10:09:28.430Z,34.30
2019-05-15T10:13:30.017Z,33.17
2019-05-15T10:17:33.081Z,32.95
2019-05-15T10:21:35.193Z,32.67
2019-05-15T10:25:38.903Z,33.28
2019-05-15T10:29:41.249Z,32.05
2019-05-15T10:33:43.474Z,33.35
2019-05-15T10:37:48.523Z,33.22
2019-05-15T10:41:49.445Z,33.29
2019-05-15T10:45:54.584Z,33.39
2019-05-15T10:49:55.262Z,32.94
2019-05-15T10:53:57.183Z,32.38
2019-05-15T10:57:59.324Z,32.94
2019-05-15T11:02:01.437Z,36.68
2019-05-15T11:06:03.694Z,31.79
2019-05-15T11:10:05.867Z,33.93
2019-05-15T11:14:09.176Z,32.75
2019-05-15T11:18:11.533Z,31.69
2019-05-15T11:22:14.710Z,32.43
2019-05-15T11:26:19.244Z,32.72
2019-05-15T11:30:20.486Z,32.04
2019-05-15T11:34:22.553Z,31.86
2019-05-15T11:38:24.555Z,32.40
2019-05-15T11:42:28.890Z,31.87
2019-05-15T11:46:30.572Z,31.62
2019-05-15T11:50:32.698Z,33.12
2019-05-15T11:54:35.007Z,31.91
2019-05-15T11:58:38.950Z,30.95
2019-05-15T12:02:40.638Z,30.99
2019-05-15T12:06:56.988Z,31.66
2019-05-15T12:10:46.828Z,32.90
2019-05-15T12:14:49.463Z,31.98
2019-05-15T12:18:51.602Z,31.39
2019-05-15T12:22:53.448Z,32.96
2019-05-15T12:26:55.704Z,31.44
2019-05-15T12:30:59.665Z,31.06
2019-05-15T12:35:01.037Z,32.16
2019-05-15T12:39:09.476Z,32.74
2019-05-15T13:03:25.392Z,31.69
2019-05-15T13:07:28.604Z,32.30
2019-05-15T13:11:31.032Z,31.67
2019-05-15T13:15:32.802Z,32.14
2019-05-15T13:19:34.721Z,30.98
2019-05-15T13:23:38.579Z,30.90
2019-05-15T13:27:40.124Z,30.41
2019-05-15T13:31:43.110Z,31.01
2019-05-15T13:35:45.698Z,31.29
2019-05-15T13:39:48.577Z,30.56
2019-05-15T13:43:50.494Z,29.95
2019-05-15T13:47:52.267Z,32.04
2019-05-15T13:51:53.996Z,30.34
2019-05-15T13:55:55.831Z,31.93
2019-05-15T13:59:58.883Z,30.68
2019-05-15T14:04:00.898Z,29.99
2019-05-15T14:08:02.687Z,30.86
2019-05-15T14:12:04.553Z,30.49
2019-05-15T14:16:09.408Z,29.84
2019-05-15T14:20:10.684Z,29.97
2019-05-15T14:24:12.467Z,30.09
2019-05-15T14:28:15.255Z,29.50
2019-05-15T14:32:32.791Z,29.22
2019-05-15T14:36:22.320Z,30.12
2019-05-15T14:40:25.265Z,28.97
2019-05-15T14:44:27.080Z,28.05
2019-05-15T14:48:30.132Z,25.19
2019-05-15T14:52:32.005Z,24.50
2019-05-15T14:56:33.770Z,23.49
2019-05-15T15:00:35.605Z,24.38
2019-05-15T15:04:40.278Z,23.53
2019-05-15T15:08:43.165Z,23.32
2019-05-15T15:12:45.306Z,23.15
2019-05-15T15:16:48.947Z,23.75
2019-05-15T15:20:50.543Z,24.45
2019-05-15T15:24:52.340Z,24.83
2019-05-15T15:28:54.184Z,23.12
2019-05-15T15:32:57.683Z,24.05
2019-05-15T15:36:59.664Z,23.70
2019-05-15T15:41:01.471Z,22.21
2019-05-15T15:45:03.505Z,23.13
2019-05-15T15:49:05.429Z,22.95
2019-05-15T15:53:09.081Z,24.38
2019-05-15T15:57:12.809Z,27.08
2019-05-15T16:01:14.592Z,28.54
2019-05-15T16:05:18.969Z,28.54
2019-05-15T16:09:20.333Z,28.38
2019-05-15T16:13:22.172Z,30.95
2019-05-15T16:17:23.936Z,32.53
2019-05-15T16:21:28.568Z,32.21
2019-05-15T16:25:29.292Z,33.98
2019-05-15T16:29:31.087Z,34.03
2019-05-15T16:33:32.858Z,35.66
2019-05-15T16:37:34.663Z,35.44
2019-05-15T16:41:38.334Z,35.12
2019-05-15T16:45:40.256Z,35.82
2019-05-15T16:49:42.042Z,37.29
2019-05-15T16:53:43.898Z,37.64
2019-05-15T16:57:47.806Z,36.82
2019-05-15T17:01:49.206Z,37.10
2019-05-15T17:05:51.013Z,38.00
2019-05-15T17:09:52.868Z,37.63
2019-05-15T17:13:54.681Z,38.93
2019-05-15T17:17:58.328Z,39.03
2019-05-15T17:21:59.911Z,39.35
2019-05-15T17:26:02.220Z,40.08
2019-05-15T17:30:04.062Z,40.25
2019-05-15T17:34:05.933Z,40.39
2019-05-15T17:38:07.973Z,41.63
2019-05-15T17:42:09.920Z,41.08
2019-05-15T17:46:12.268Z,41.79
2019-05-15T17:50:14.963Z,42.55
2019-05-15T17:54:18.201Z,42.79
2019-05-15T17:58:20.633Z,42.82
2019-05-15T18:02:23.589Z,42.93
2019-05-15T18:06:28.644Z,43.17
2019-05-15T18:10:29.613Z,43.36
2019-05-15T18:14:31.713Z,44.60
2019-05-15T18:18:33.825Z,46.34
2019-05-15T18:22:37.905Z,45.64
2019-05-15T18:26:39.639Z,45.65
2019-05-15T18:30:41.758Z,46.42
2019-05-15T18:34:43.768Z,47.18
2019-05-15T18:38:48.089Z,47.04
2019-05-15T18:42:49.740Z,48.48
2019-05-15T18:46:51.894Z,47.73
2019-05-15T18:50:54.035Z,47.93
2019-05-15T18:54:58.706Z,48.06
2019-05-15T18:59:00.944Z,49.30
2019-05-15T19:03:15.990Z,48.88
2019-05-15T19:07:08.890Z,50.35
2019-05-15T19:11:14.404Z,50.89
2019-05-15T19:15:17.892Z,50.67
2019-05-15T19:19:20.438Z,52.12
2019-05-15T19:23:22.510Z,52.73
2019-05-15T19:27:24.766Z,54.80
2019-05-15T19:31:29.824Z,55.78
2019-05-15T19:35:30.746Z,56.03
2019-05-15T19:39:32.924Z,56.01
2019-05-15T19:43:34.977Z,57.07
2019-05-15T19:47:38.688Z,58.05
2019-05-15T19:51:41.177Z,57.91
2019-05-15T19:55:43.333Z,59.45
2019-05-15T19:59:45.465Z,59.96
2019-05-15T20:03:52.842Z,61.14
2019-05-15T20:07:52.900Z,60.40
2019-05-15T20:11:54.996Z,60.18
2019-05-15T20:15:58.031Z,61.08
2019-05-15T20:20:01.594Z,60.96
2019-05-15T20:24:04.009Z,62.05
2019-05-15T20:28:08.260Z,62.65
2019-05-15T20:32:11.262Z,63.38
2019-05-15T20:36:13.610Z,63.46
2019-05-15T20:40:17.955Z,64.11
2019-05-15T20:44:19.646Z,64.39
2019-05-15T20:48:21.740Z,65.31
2019-05-15T20:52:23.890Z,64.54
2019-05-15T20:56:28.146Z,65.77
2019-05-15T21:00:30.053Z,67.66
2019-05-15T21:04:32.375Z,67.65
2019-05-15T21:08:35.439Z,68.54
2019-05-15T21:12:40.461Z,67.54
2019-05-15T21:16:41.352Z,66.66
2019-05-15T21:20:43.374Z,65.57
2019-05-15T21:24:45.511Z,65.46
2019-05-15T21:28:48.175Z,65.51
2019-05-15T21:32:50.541Z,65.31
2019-05-15T21:36:52.722Z,65.48
2019-05-15T21:40:55.140Z,65.73
2019-05-15T21:44:58.210Z,68.51
2019-05-15T21:49:00.803Z,67.89
2019-05-15T21:53:03.152Z,69.76
2019-05-15T21:57:24.932Z,69.64
2019-05-15T22:01:11.182Z,69.76
2019-05-15T22:05:14.228Z,70.87
2019-05-15T22:09:19.364Z,71.57
2019-05-15T22:13:22.066Z,70.99
2019-05-15T22:17:25.207Z,70.98
2019-05-15T22:21:27.815Z,72.06
2019-05-15T22:25:30.049Z,72.30
2019-05-15T22:29:32.550Z,72.28
2019-05-15T22:33:34.774Z,73.11
2019-05-15T22:37:41.135Z,72.76
2019-05-15T22:41:41.285Z,72.25
2019-05-15T22:45:43.493Z,72.73
2019-05-15T22:49:45.542Z,72.69
2019-05-15T22:53:48.909Z,73.23
2019-05-15T22:57:51.104Z,74.12
2019-05-15T23:01:53.476Z,74.41
2019-05-15T23:05:57.969Z,74.85
2019-05-15T23:09:59.850Z,74.26
2019-05-15T23:14:02.077Z,75.39
2019-05-15T23:18:04.289Z,75.22
2019-05-15T23:22:08.345Z,75.85
2019-05-15T23:26:10.545Z,76.34
2019-05-15T23:30:13.853Z,76.17
2019-05-15T23:34:18.530Z,76.48
2019-05-15T23:38:19.770Z,76.97
2019-05-15T23:42:21.901Z,77.59
2019-05-15T23:46:24.035Z,77.68
2019-05-15T23:50:28.636Z,77.59
2019-05-15T23:54:30.098Z,77.61
2019-05-15T23:58:32.171Z,77.66
